Terminal Aerodrome Forecast
Issued by NWS Dallas/Fort Worth, TX

Home | Current Version | Previous Version | Text Only | Print | Product List | Glossary On
Versions: 1 2 3 4 5 6 7 8 9 10 11 12 13 14 15 16 17 18 19 20 21 22 23 24 25 26 27 28 29 30 31 32 33 34
166
FTUS44 KFWD 261135
TAFACT
TAF
KACT 261135Z 2612/2712 13010KT P6SM SCT050 BKN100
      TEMPO 2614/2617 BKN025
     FM261800 15010KT P6SM SCT025 BKN040
     FM270300 07008KT P6SM SCT050 BKN110=

USA.gov is the U.S. government's official web portal to all federal, state and local government web resources and services.